createdAt,value
2023-05-15T00:00:47.507Z,547.00
2023-05-15T00:01:47.552Z,549.00
2023-05-15T00:02:47.675Z,550.00
2023-05-15T00:03:47.732Z,553.00
2023-05-15T00:04:47.784Z,553.00
2023-05-15T00:05:47.811Z,551.00
2023-05-15T00:06:47.878Z,550.00
2023-05-15T00:07:47.932Z,551.00
2023-05-15T00:08:48.010Z,554.00
2023-05-15T00:09:48.075Z,557.00
2023-05-15T00:11:00.897Z,557.00
2023-05-15T00:11:48.148Z,556.00
2023-05-15T00:12:48.179Z,556.00
2023-05-15T00:13:48.167Z,556.00
2023-05-15T00:14:48.179Z,557.00
2023-05-15T00:15:48.194Z,558.00
2023-05-15T00:16:48.192Z,556.00
2023-05-15T00:17:48.242Z,553.00
2023-05-15T00:18:48.284Z,552.00
2023-05-15T00:19:48.164Z,551.00
2023-05-15T00:20:48.156Z,553.00
2023-05-15T00:21:48.159Z,554.00
2023-05-15T00:22:48.158Z,556.00
2023-05-15T00:23:48.166Z,555.00
2023-05-15T00:24:48.178Z,556.00
2023-05-15T00:25:48.195Z,554.00
2023-05-15T00:26:48.210Z,552.00
2023-05-15T00:27:48.182Z,550.00
2023-05-15T00:28:48.168Z,548.00
2023-05-15T00:29:48.173Z,550.00
2023-05-15T00:30:48.176Z,553.00
2023-05-15T00:31:48.244Z,554.00
2023-05-15T00:32:48.197Z,553.00
2023-05-15T00:33:48.163Z,554.00
2023-05-15T00:34:48.175Z,554.00
2023-05-15T00:35:48.173Z,555.00
2023-05-15T00:36:48.172Z,557.00
2023-05-15T00:37:48.169Z,556.00
2023-05-15T00:38:48.175Z,554.00
2023-05-15T00:39:48.253Z,552.00
2023-05-15T00:40:48.264Z,550.00
2023-05-15T00:41:48.302Z,550.00
2023-05-15T00:42:48.384Z,550.00
2023-05-15T00:43:48.406Z,550.00
2023-05-15T00:44:48.440Z,552.00
2023-05-15T00:45:48.482Z,552.00
2023-05-15T00:46:48.560Z,552.00
2023-05-15T00:47:48.581Z,553.00
2023-05-15T00:48:48.572Z,552.00
2023-05-15T00:49:48.771Z,552.00
2023-05-15T00:50:48.655Z,553.00
2023-05-15T00:51:48.687Z,552.00
2023-05-15T00:52:48.730Z,553.00
2023-05-15T00:53:48.801Z,554.00
2023-05-15T00:54:48.826Z,551.00
2023-05-15T00:55:48.888Z,552.00
2023-05-15T00:56:48.915Z,553.00
2023-05-15T00:57:48.977Z,552.00
2023-05-15T00:58:49.085Z,550.00
2023-05-15T00:59:49.134Z,548.00
2023-05-15T01:00:49.239Z,549.00
2023-05-15T01:01:49.261Z,551.00
2023-05-15T01:02:49.430Z,553.00
2023-05-15T01:03:49.362Z,554.00
2023-05-15T01:04:49.414Z,552.00
2023-05-15T01:05:49.433Z,552.00
2023-05-15T01:06:49.471Z,553.00
2023-05-15T01:07:49.536Z,554.00
2023-05-15T01:08:49.626Z,556.00
2023-05-15T01:09:49.632Z,552.00
2023-05-15T01:10:49.677Z,552.00
2023-05-15T01:11:49.746Z,553.00
2023-05-15T01:12:49.813Z,555.00
2023-05-15T01:13:49.873Z,553.00
2023-05-15T01:14:49.925Z,553.00
2023-05-15T01:15:49.936Z,554.00
2023-05-15T01:16:50.028Z,555.00
2023-05-15T01:17:50.136Z,556.00
2023-05-15T01:18:50.156Z,552.00
2023-05-15T01:19:50.318Z,549.00
2023-05-15T01:20:50.185Z,549.00
2023-05-15T01:21:50.247Z,548.00
2023-05-15T01:22:50.289Z,549.00
2023-05-15T01:23:50.320Z,549.00
2023-05-15T01:24:50.373Z,550.00
2023-05-15T01:25:50.423Z,554.00
2023-05-15T01:26:50.493Z,555.00
2023-05-15T01:27:50.532Z,553.00
2023-05-15T01:28:50.549Z,554.00
2023-05-15T01:29:50.594Z,554.00
2023-05-15T01:30:50.714Z,553.00
2023-05-15T01:31:50.777Z,556.00
2023-05-15T01:32:50.821Z,555.00
2023-05-15T01:33:50.812Z,556.00
2023-05-15T01:34:50.826Z,555.00
2023-05-15T01:35:50.857Z,558.00
2023-05-15T01:36:50.916Z,560.00
2023-05-15T01:37:50.970Z,558.00
2023-05-15T01:38:51.039Z,557.00
2023-05-15T01:39:51.105Z,557.00
2023-05-15T01:40:51.139Z,554.00
2023-05-15T01:41:51.231Z,552.00
2023-05-15T01:42:51.274Z,549.00
2023-05-15T01:43:51.320Z,548.00
2023-05-15T01:44:51.365Z,550.00
2023-05-15T01:45:51.465Z,552.00
2023-05-15T01:46:51.575Z,550.00
2023-05-15T01:47:51.554Z,551.00
2023-05-15T01:48:51.573Z,552.00
2023-05-15T01:49:51.609Z,553.00
2023-05-15T01:50:51.665Z,554.00
2023-05-15T01:51:51.709Z,554.00
2023-05-15T01:52:51.761Z,554.00
2023-05-15T01:53:51.784Z,554.00
2023-05-15T01:54:51.839Z,553.00
2023-05-15T01:55:51.922Z,552.00
2023-05-15T01:56:51.984Z,555.00
2023-05-15T01:57:52.042Z,556.00
2023-05-15T01:58:52.098Z,558.00
2023-05-15T01:59:52.121Z,557.00
2023-05-15T02:00:52.182Z,557.00
2023-05-15T02:01:52.280Z,554.00
2023-05-15T02:02:52.406Z,549.00
2023-05-15T02:03:52.444Z,550.00
2023-05-15T02:04:52.422Z,552.00
2023-05-15T02:05:52.472Z,551.00
2023-05-15T02:06:52.518Z,553.00
2023-05-15T02:07:52.596Z,552.00
2023-05-15T02:08:52.670Z,555.00
2023-05-15T02:09:52.772Z,555.00
2023-05-15T02:10:52.789Z,555.00
2023-05-15T02:11:52.828Z,552.00
2023-05-15T02:12:52.871Z,552.00
2023-05-15T02:13:52.955Z,554.00
2023-05-15T02:14:52.974Z,553.00
2023-05-15T02:15:53.072Z,555.00
2023-05-15T02:16:53.019Z,557.00
2023-05-15T02:17:53.095Z,558.00
2023-05-15T02:18:53.197Z,556.00
2023-05-15T02:19:53.134Z,559.00
2023-05-15T02:20:53.199Z,559.00
2023-05-15T02:21:53.225Z,562.00
2023-05-15T02:22:53.260Z,564.00
2023-05-15T02:23:53.348Z,564.00
2023-05-15T02:24:53.335Z,565.00
2023-05-15T02:25:53.339Z,563.00
2023-05-15T02:26:53.420Z,563.00
2023-05-15T02:27:53.459Z,564.00
2023-05-15T02:28:53.506Z,565.00
2023-05-15T02:29:53.550Z,563.00
2023-05-15T02:30:53.585Z,562.00
2023-05-15T02:31:53.649Z,563.00
2023-05-15T02:32:53.767Z,563.00
2023-05-15T02:33:53.761Z,564.00
2023-05-15T02:34:53.836Z,561.00
2023-05-15T02:35:53.852Z,560.00
2023-05-15T02:36:53.903Z,563.00
2023-05-15T02:37:53.962Z,564.00
2023-05-15T02:38:54.008Z,563.00
2023-05-15T02:39:54.039Z,561.00
2023-05-15T02:40:54.084Z,560.00
2023-05-15T02:41:54.095Z,561.00
2023-05-15T02:42:54.130Z,562.00
2023-05-15T02:43:54.161Z,563.00
2023-05-15T02:44:54.217Z,562.00
2023-05-15T02:45:54.312Z,565.00
2023-05-15T02:46:54.341Z,566.00
2023-05-15T02:47:54.471Z,566.00
2023-05-15T02:48:54.448Z,565.00
2023-05-15T02:49:54.496Z,563.00
2023-05-15T02:50:54.547Z,562.00
2023-05-15T02:51:54.560Z,561.00
2023-05-15T02:52:54.601Z,561.00
2023-05-15T02:53:54.655Z,562.00
2023-05-15T02:54:54.687Z,562.00
2023-05-15T02:55:54.753Z,560.00
2023-05-15T02:56:54.749Z,562.00
2023-05-15T02:57:54.774Z,561.00
2023-05-15T02:58:54.804Z,557.00
2023-05-15T02:59:54.845Z,558.00
2023-05-15T03:00:54.926Z,559.00
2023-05-15T03:01:54.932Z,562.00
2023-05-15T03:02:54.980Z,566.00
2023-05-15T03:03:54.994Z,565.00
2023-05-15T03:04:55.033Z,563.00
2023-05-15T03:05:55.070Z,564.00
2023-05-15T03:06:55.145Z,566.00
2023-05-15T03:07:55.129Z,564.00
2023-05-15T03:08:55.131Z,565.00
2023-05-15T03:09:55.140Z,566.00
2023-05-15T03:10:55.178Z,563.00
2023-05-15T03:11:55.199Z,562.00
2023-05-15T03:12:55.236Z,564.00
2023-05-15T03:13:55.274Z,562.00
2023-05-15T03:14:55.289Z,563.00
2023-05-15T03:15:55.320Z,564.00
2023-05-15T03:16:55.408Z,562.00
2023-05-15T03:17:55.473Z,561.00
2023-05-15T03:18:55.458Z,560.00
2023-05-15T03:19:55.440Z,560.00
2023-05-15T03:20:55.494Z,562.00
2023-05-15T03:21:55.532Z,563.00
2023-05-15T03:22:55.588Z,565.00
2023-05-15T03:23:55.553Z,566.00
2023-05-15T03:24:55.605Z,566.00
2023-05-15T03:25:55.648Z,568.00
2023-05-15T03:26:55.694Z,569.00
2023-05-15T03:27:55.710Z,568.00
2023-05-15T03:28:55.728Z,570.00
2023-05-15T03:29:55.747Z,569.00
2023-05-15T03:30:55.784Z,569.00
2023-05-15T03:31:55.965Z,571.00
2023-05-15T03:32:55.867Z,570.00
2023-05-15T03:33:55.872Z,570.00
2023-05-15T03:34:55.926Z,572.00
2023-05-15T03:35:56.011Z,573.00
2023-05-15T03:36:56.035Z,573.00
2023-05-15T03:37:56.059Z,576.00
2023-05-15T03:38:56.134Z,575.00
2023-05-15T03:39:56.150Z,573.00
2023-05-15T03:40:56.168Z,571.00
2023-05-15T03:41:56.206Z,571.00
2023-05-15T03:42:56.213Z,571.00
2023-05-15T03:43:56.238Z,571.00
2023-05-15T03:44:56.266Z,570.00
2023-05-15T03:45:56.263Z,569.00
2023-05-15T03:46:56.492Z,568.00
2023-05-15T03:47:56.306Z,571.00
2023-05-15T03:48:56.292Z,569.00
2023-05-15T03:49:56.337Z,570.00
2023-05-15T03:50:56.405Z,570.00
2023-05-15T03:51:56.402Z,568.00
2023-05-15T03:52:56.995Z,568.00
2023-05-15T03:53:56.480Z,565.00
2023-05-15T03:54:56.548Z,568.00
2023-05-15T03:55:56.452Z,571.00
2023-05-15T03:56:56.491Z,570.00
2023-05-15T03:57:56.527Z,569.00
2023-05-15T03:58:56.557Z,567.00
2023-05-15T03:59:56.582Z,566.00
2023-05-15T04:00:56.593Z,565.00
2023-05-15T04:02:04.837Z,562.00
2023-05-15T04:02:56.648Z,560.00
2023-05-15T04:03:56.614Z,559.00
2023-05-15T04:04:56.642Z,558.00
2023-05-15T04:05:56.615Z,558.00
2023-05-15T04:06:56.620Z,561.00
2023-05-15T04:07:56.634Z,563.00
2023-05-15T04:08:56.632Z,565.00
2023-05-15T04:09:56.639Z,568.00
2023-05-15T04:10:56.677Z,568.00
2023-05-15T04:11:56.657Z,566.00
2023-05-15T04:12:56.656Z,565.00
2023-05-15T04:13:56.661Z,567.00
2023-05-15T04:14:56.664Z,566.00
2023-05-15T04:15:56.677Z,565.00
2023-05-15T04:16:56.686Z,565.00
2023-05-15T04:17:56.731Z,565.00
2023-05-15T04:18:56.758Z,565.00
2023-05-15T04:19:56.693Z,564.00
2023-05-15T04:20:56.707Z,563.00
2023-05-15T04:21:56.706Z,563.00
2023-05-15T04:22:56.711Z,562.00
2023-05-15T04:23:56.749Z,564.00
2023-05-15T04:24:56.724Z,564.00
2023-05-15T04:25:56.725Z,567.00
2023-05-15T04:26:56.783Z,567.00
2023-05-15T04:27:56.745Z,568.00
2023-05-15T04:29:56.741Z,569.00
2023-05-15T04:30:56.761Z,570.00
2023-05-15T04:31:56.817Z,572.00
2023-05-15T04:32:56.852Z,570.00
2023-05-15T04:33:56.746Z,570.00
2023-05-15T04:34:56.750Z,570.00
2023-05-15T04:35:56.753Z,570.00
2023-05-15T04:36:56.795Z,571.00
2023-05-15T04:37:56.748Z,570.00
2023-05-15T04:38:56.755Z,568.00
2023-05-15T04:39:56.758Z,563.00
2023-05-15T04:40:56.771Z,565.00
2023-05-15T04:41:56.787Z,565.00
2023-05-15T04:42:56.825Z,564.00
2023-05-15T04:43:56.788Z,562.00
2023-05-15T04:44:56.813Z,563.00
2023-05-15T04:45:56.864Z,565.00
2023-05-15T04:46:56.808Z,562.00
2023-05-15T04:47:56.869Z,560.00
2023-05-15T04:48:56.817Z,562.00
2023-05-15T04:49:56.830Z,563.00
2023-05-15T04:50:56.823Z,564.00
2023-05-15T04:51:56.836Z,565.00
2023-05-15T04:52:56.834Z,566.00
2023-05-15T04:53:56.837Z,567.00
2023-05-15T04:54:56.843Z,567.00
2023-05-15T04:55:56.842Z,565.00
2023-05-15T04:56:56.852Z,563.00
2023-05-15T04:57:56.853Z,563.00
2023-05-15T04:58:56.883Z,564.00
2023-05-15T04:59:56.895Z,564.00
2023-05-15T05:00:56.881Z,565.00
2023-05-15T05:01:56.945Z,564.00
2023-05-15T05:02:56.947Z,563.00
2023-05-15T05:03:56.907Z,566.00
2023-05-15T05:04:56.880Z,565.00
2023-05-15T05:05:56.884Z,564.00
2023-05-15T05:06:56.885Z,566.00
2023-05-15T05:07:56.899Z,566.00
2023-05-15T05:08:56.890Z,565.00
2023-05-15T05:09:56.929Z,566.00
2023-05-15T05:10:56.882Z,565.00
2023-05-15T05:11:56.901Z,566.00
2023-05-15T05:12:56.901Z,567.00
2023-05-15T05:13:56.906Z,567.00
2023-05-15T05:14:56.926Z,566.00
2023-05-15T05:15:56.909Z,565.00
2023-05-15T05:16:56.894Z,562.00
2023-05-15T05:17:56.951Z,565.00
2023-05-15T05:18:56.891Z,564.00
2023-05-15T05:19:56.881Z,564.00
2023-05-15T05:20:56.889Z,565.00
2023-05-15T05:21:57.037Z,562.00
2023-05-15T05:22:56.887Z,566.00
2023-05-15T05:23:56.883Z,586.00
2023-05-15T05:24:56.881Z,605.00
2023-05-15T05:25:56.879Z,600.00
2023-05-15T05:26:58.084Z,595.00
2023-05-15T05:27:56.882Z,598.00
2023-05-15T05:28:57.073Z,602.00
2023-05-15T05:29:56.911Z,598.00
2023-05-15T05:30:56.955Z,597.00
2023-05-15T05:31:57.153Z,602.00
2023-05-15T05:32:57.043Z,603.00
2023-05-15T05:33:57.214Z,605.00
2023-05-15T05:34:57.178Z,601.00
2023-05-15T05:35:57.250Z,597.00
2023-05-15T05:36:57.543Z,599.00
2023-05-15T05:37:57.371Z,602.00
2023-05-15T05:38:57.560Z,605.00
2023-05-15T05:39:57.452Z,605.00
2023-05-15T05:40:57.458Z,604.00
2023-05-15T05:41:57.548Z,607.00
2023-05-15T05:42:56.518Z,603.00
2023-05-15T05:43:57.565Z,612.00
2023-05-15T05:44:57.625Z,614.00
2023-05-15T05:45:57.684Z,613.00
2023-05-15T05:46:58.128Z,610.00
2023-05-15T05:47:57.865Z,616.00
2023-05-15T05:48:57.880Z,620.00
2023-05-15T05:49:58.015Z,622.00
2023-05-15T05:50:57.993Z,623.00
2023-05-15T05:51:58.538Z,622.00
2023-05-15T05:52:58.132Z,625.00
2023-05-15T05:53:58.222Z,637.00
2023-05-15T05:54:58.282Z,642.00
2023-05-15T05:55:58.365Z,639.00
2023-05-15T05:56:58.551Z,642.00
2023-05-15T05:57:58.537Z,661.00
2023-05-15T06:00:01.837Z,647.00
2023-05-15T06:02:06.201Z,650.00
2023-05-15T06:05:01.995Z,780.00
2023-05-15T06:08:06.271Z,929.00
2023-05-15T06:08:58.915Z,942.00
2023-05-15T06:09:58.943Z,942.00
2023-05-15T06:10:58.964Z,942.00
2023-05-15T06:11:59.065Z,949.00
2023-05-15T06:13:00.006Z,958.00
2023-05-15T06:13:59.005Z,966.00
2023-05-15T06:14:59.019Z,975.00
2023-05-15T06:15:59.032Z,1015.00
2023-05-15T06:16:59.097Z,1034.00
2023-05-15T06:17:59.130Z,1042.00
2023-05-15T06:18:59.097Z,1059.00
2023-05-15T06:19:59.095Z,1112.00
2023-05-15T06:20:59.082Z,1130.00
2023-05-15T06:21:59.547Z,1136.00
2023-05-15T06:22:59.550Z,1138.00
2023-05-15T06:23:59.111Z,1150.00
2023-05-15T06:24:59.108Z,1232.00
2023-05-15T06:25:59.138Z,1234.00
2023-05-15T06:26:59.554Z,1239.00
2023-05-15T06:28:00.160Z,1249.00
2023-05-15T06:28:59.167Z,1261.00
2023-05-15T06:29:59.178Z,1314.00
2023-05-15T06:30:59.238Z,1328.00
2023-05-15T06:31:59.227Z,1339.00
2023-05-15T06:32:59.984Z,1355.00
2023-05-15T06:33:59.276Z,1370.00
2023-05-15T06:34:59.303Z,1386.00
2023-05-15T06:35:59.397Z,1446.00
2023-05-15T06:36:59.561Z,1451.00
2023-05-15T06:37:59.514Z,1467.00
2023-05-15T06:38:59.566Z,1480.00
2023-05-15T06:39:59.646Z,1509.00
2023-05-15T06:41:00.066Z,1541.00
2023-05-15T06:42:00.095Z,1554.00
2023-05-15T06:42:59.868Z,1569.00
2023-05-15T06:44:00.110Z,1576.00
2023-05-15T06:45:00.941Z,1588.00
2023-05-15T06:46:00.135Z,1616.00
2023-05-15T06:47:00.240Z,1632.00
2023-05-15T06:48:02.029Z,1657.00
2023-05-15T06:49:00.069Z,1688.00
2023-05-15T06:50:00.258Z,1713.00
2023-05-15T06:51:00.071Z,1742.00
2023-05-15T06:53:00.034Z,1769.00
2023-05-15T06:54:00.069Z,1779.00
2023-05-15T06:55:00.029Z,1795.00
2023-05-15T06:56:01.009Z,1810.00
2023-05-15T06:57:00.068Z,1824.00
2023-05-15T06:58:00.398Z,1825.00
2023-05-15T06:59:00.015Z,1763.00
2023-05-15T06:59:59.981Z,1821.00
2023-05-15T07:01:01.276Z,1837.00
2023-05-15T07:02:00.216Z,1834.00
2023-05-15T07:03:00.019Z,1842.00
2023-05-15T07:04:03.147Z,1852.00
2023-05-15T07:04:59.976Z,1897.00
2023-05-15T07:06:00.135Z,1961.00
2023-05-15T07:06:59.927Z,1971.00
2023-05-15T07:07:59.960Z,1971.00
2023-05-15T07:09:03.077Z,1979.00
2023-05-15T07:09:59.880Z,1987.00
2023-05-15T07:11:00.082Z,1987.00
2023-05-15T07:12:00.497Z,2007.00
2023-05-15T07:12:59.849Z,2026.00
2023-05-15T07:13:59.830Z,2034.00
2023-05-15T07:14:59.828Z,2044.00
2023-05-15T07:16:00.081Z,2055.00
2023-05-15T07:16:59.846Z,2088.00
2023-05-15T07:17:59.855Z,2071.00
2023-05-15T07:18:59.852Z,2088.00
2023-05-15T07:20:00.577Z,2106.00
2023-05-15T07:21:00.108Z,2158.00
2023-05-15T07:22:00.869Z,2176.00
2023-05-15T07:23:00.098Z,2190.00
2023-05-15T07:23:59.743Z,2207.00
2023-05-15T07:24:59.693Z,2233.00
2023-05-15T07:25:59.687Z,2245.00
2023-05-15T07:26:59.656Z,2250.00
2023-05-15T07:28:00.188Z,2274.00
2023-05-15T07:29:00.345Z,2280.00
2023-05-15T07:30:00.914Z,2297.00
2023-05-15T07:31:02.742Z,2289.00
2023-05-15T07:31:59.918Z,2294.00
2023-05-15T07:33:02.842Z,2103.00
2023-05-15T07:33:59.545Z,2111.00
2023-05-15T07:35:00.200Z,2122.00
2023-05-15T07:36:02.861Z,2218.00
2023-05-15T07:37:02.832Z,2207.00
2023-05-15T07:38:00.534Z,2211.00
2023-05-15T07:39:00.452Z,2215.00
2023-05-15T07:39:59.490Z,2265.00
2023-05-15T07:40:59.421Z,2280.00
2023-05-15T07:42:00.589Z,2354.00
2023-05-15T07:42:59.579Z,2359.00
2023-05-15T07:43:59.458Z,2370.00
2023-05-15T07:44:59.482Z,2378.00
2023-05-15T07:46:00.642Z,2375.00
2023-05-15T07:46:59.561Z,2390.00
2023-05-15T07:48:00.154Z,2405.00
2023-05-15T07:49:00.651Z,2398.00
2023-05-15T07:50:00.544Z,2409.00
2023-05-15T07:50:59.671Z,2486.00
2023-05-15T07:51:59.670Z,2496.00
2023-05-15T07:53:00.217Z,2506.00
2023-05-15T07:54:02.818Z,2543.00
2023-05-15T07:54:59.637Z,2604.00
2023-05-15T07:55:59.590Z,2649.00
2023-05-15T07:57:03.286Z,2657.00
2023-05-15T07:57:59.589Z,2667.00
2023-05-15T07:58:59.614Z,2667.00
2023-05-15T07:59:59.554Z,2682.00
2023-05-15T08:00:59.513Z,2714.00
2023-05-15T08:01:59.518Z,2498.00
2023-05-15T08:02:59.715Z,2096.00
2023-05-15T08:03:59.581Z,1883.00
2023-05-15T08:04:59.438Z,1774.00
2023-05-15T08:06:02.630Z,1643.00
2023-05-15T08:07:00.445Z,1758.00
2023-05-15T08:07:59.588Z,1572.00
2023-05-15T08:08:59.474Z,1438.00
2023-05-15T08:09:59.362Z,1380.00
2023-05-15T08:11:06.742Z,1418.00
2023-05-15T08:11:59.341Z,1372.00
2023-05-15T08:12:59.743Z,1308.00
2023-05-15T08:13:59.414Z,1297.00
2023-05-15T08:14:59.307Z,1283.00
2023-05-15T08:15:59.404Z,1268.00
2023-05-15T08:16:59.306Z,1252.00
2023-05-15T08:17:59.658Z,1229.00
2023-05-15T08:18:59.344Z,1208.00
2023-05-15T08:19:59.299Z,1189.00
2023-05-15T08:20:59.300Z,1153.00
2023-05-15T08:21:59.302Z,1148.00
2023-05-15T08:22:59.338Z,1150.00
2023-05-15T08:23:59.397Z,1149.00
2023-05-15T08:25:02.750Z,1139.00
2023-05-15T08:25:59.454Z,1076.00
2023-05-15T08:26:59.453Z,1079.00
2023-05-15T08:27:59.596Z,1073.00
2023-05-15T08:28:59.447Z,1062.00
2023-05-15T08:29:59.632Z,1076.00
2023-05-15T08:30:59.461Z,1052.00
2023-05-15T08:31:59.434Z,1049.00
2023-05-15T08:32:59.626Z,1053.00
2023-05-15T08:33:59.441Z,1048.00
2023-05-15T08:34:59.603Z,1032.00
2023-05-15T08:35:59.461Z,1031.00
2023-05-15T08:36:59.446Z,1031.00
2023-05-15T08:37:59.425Z,1031.00
2023-05-15T08:38:59.460Z,1030.00
2023-05-15T08:39:59.600Z,1026.00
2023-05-15T08:40:59.463Z,1021.00
2023-05-15T08:41:59.429Z,1026.00
2023-05-15T08:42:59.432Z,1002.00
2023-05-15T08:45:15.025Z,937.00
2023-05-15T08:46:06.801Z,928.00
2023-05-15T08:46:59.475Z,929.00
2023-05-15T08:48:07.048Z,963.00
2023-05-15T08:50:14.989Z,1085.00
2023-05-15T08:51:02.606Z,1073.00
2023-05-15T08:51:59.367Z,1072.00
2023-05-15T08:52:59.360Z,1102.00
2023-05-15T08:53:59.351Z,1116.00
2023-05-15T08:54:59.340Z,1142.00
2023-05-15T08:55:59.323Z,1229.00
2023-05-15T08:56:59.329Z,1247.00
2023-05-15T08:58:07.014Z,1250.00
2023-05-15T08:58:59.365Z,1262.00
2023-05-15T08:59:59.245Z,1280.00
2023-05-15T09:00:59.238Z,1300.00
2023-05-15T09:01:59.655Z,1313.00
2023-05-15T09:02:59.720Z,1322.00
2023-05-15T09:03:59.247Z,1341.00
2023-05-15T09:04:59.624Z,1360.00
2023-05-15T09:05:59.142Z,1388.00
2023-05-15T09:06:59.107Z,1386.00
2023-05-15T09:07:59.097Z,1396.00
2023-05-15T09:08:59.137Z,1416.00
2023-05-15T09:09:59.115Z,1466.00
2023-05-15T09:10:59.033Z,1438.00
2023-05-15T09:11:59.016Z,1467.00
2023-05-15T09:12:59.022Z,1472.00
2023-05-15T09:13:58.982Z,1480.00
2023-05-15T09:14:59.118Z,1512.00
2023-05-15T09:15:58.940Z,1523.00
2023-05-15T09:16:58.968Z,1534.00
2023-05-15T09:17:59.952Z,1567.00
2023-05-15T09:18:59.059Z,1573.00
2023-05-15T09:19:59.123Z,1579.00
2023-05-15T09:20:58.965Z,1593.00
2023-05-15T09:21:58.959Z,1604.00
2023-05-15T09:22:59.142Z,1632.00
2023-05-15T09:23:59.056Z,1692.00
2023-05-15T09:24:59.132Z,1690.00
2023-05-15T09:26:02.900Z,1697.00
2023-05-15T09:26:59.118Z,1710.00
2023-05-15T09:27:59.105Z,1713.00
2023-05-15T09:28:58.138Z,1724.00
2023-05-15T09:29:59.064Z,1736.00
2023-05-15T09:30:59.135Z,1740.00
2023-05-15T09:32:02.304Z,1740.00
2023-05-15T09:32:59.010Z,1782.00
2023-05-15T09:34:02.331Z,1812.00
2023-05-15T09:34:58.964Z,1818.00
2023-05-15T09:35:58.950Z,1897.00
2023-05-15T09:36:58.940Z,1913.00
2023-05-15T09:37:59.132Z,1924.00
2023-05-15T09:38:59.903Z,1934.00
2023-05-15T09:39:58.869Z,1946.00
2023-05-15T09:40:58.833Z,1997.00
2023-05-15T09:41:58.803Z,2013.00
2023-05-15T09:43:06.847Z,2023.00
2023-05-15T09:43:58.803Z,1865.00
2023-05-15T09:44:58.790Z,1774.00
2023-05-15T09:45:59.172Z,1749.00
2023-05-15T09:46:58.791Z,1735.00
2023-05-15T09:47:59.200Z,1677.00
2023-05-15T09:48:59.674Z,1652.00
2023-05-15T09:49:58.660Z,1645.00
2023-05-15T09:50:58.628Z,1632.00
2023-05-15T09:51:58.605Z,1620.00
2023-05-15T09:52:58.583Z,1533.00
2023-05-15T09:53:58.569Z,1537.00
2023-05-15T09:54:58.594Z,1491.00
2023-05-15T09:55:58.548Z,1464.00
2023-05-15T09:56:58.582Z,1462.00
2023-05-15T09:57:58.634Z,1457.00
2023-05-15T09:58:58.788Z,1448.00
2023-05-15T09:59:58.727Z,1386.00
2023-05-15T10:00:58.804Z,1394.00
2023-05-15T10:01:58.904Z,1376.00
2023-05-15T10:02:59.228Z,1350.00
2023-05-15T10:03:59.896Z,1318.00
2023-05-15T10:04:59.024Z,1302.00
2023-05-15T10:05:59.050Z,1300.00
2023-05-15T10:06:59.088Z,1295.00
2023-05-15T10:07:59.127Z,1286.00
2023-05-15T10:08:59.175Z,1267.00
2023-05-15T10:09:59.197Z,1253.00
2023-05-15T10:10:59.691Z,1252.00
2023-05-15T10:11:59.245Z,1233.00
2023-05-15T10:12:59.641Z,1202.00
2023-05-15T10:13:59.328Z,1208.00
2023-05-15T10:14:59.428Z,1216.00
2023-05-15T10:15:59.490Z,1195.00
2023-05-15T10:16:59.513Z,1158.00
2023-05-15T10:17:59.734Z,1146.00
2023-05-15T10:18:59.629Z,1149.00
2023-05-15T10:19:59.647Z,1144.00
2023-05-15T10:20:59.706Z,1131.00
2023-05-15T10:21:59.730Z,1129.00
2023-05-15T10:23:00.168Z,1114.00
2023-05-15T10:24:00.165Z,1119.00
2023-05-15T10:24:59.833Z,1031.00
2023-05-15T10:25:59.855Z,1017.00
2023-05-15T10:26:59.845Z,1016.00
2023-05-15T10:27:59.838Z,1016.00
2023-05-15T10:29:00.221Z,1015.00
2023-05-15T10:29:59.897Z,1008.00
2023-05-15T10:31:00.223Z,995.00
2023-05-15T10:31:59.850Z,959.00
2023-05-15T10:32:59.970Z,834.00
2023-05-15T10:33:59.907Z,744.00
2023-05-15T10:34:59.987Z,708.00
2023-05-15T10:36:00.201Z,697.00
2023-05-15T10:37:00.073Z,705.00
2023-05-15T10:38:00.166Z,704.00
2023-05-15T10:39:00.175Z,707.00
2023-05-15T10:40:00.262Z,733.00
2023-05-15T10:41:16.047Z,736.00
2023-05-15T10:42:00.669Z,737.00
2023-05-15T10:43:00.389Z,746.00
2023-05-15T10:44:00.651Z,747.00
2023-05-15T10:45:00.509Z,747.00
2023-05-15T10:46:00.361Z,748.00
2023-05-15T10:47:00.346Z,758.00
2023-05-15T10:48:00.386Z,768.00
2023-05-15T10:49:00.682Z,775.00
2023-05-15T10:50:00.368Z,773.00
2023-05-15T10:51:01.038Z,773.00
2023-05-15T10:52:00.462Z,768.00
2023-05-15T10:53:00.518Z,764.00
2023-05-15T10:54:00.851Z,759.00
2023-05-15T10:55:00.569Z,765.00
2023-05-15T10:56:00.744Z,782.00
2023-05-15T10:57:00.649Z,798.00
2023-05-15T10:58:00.664Z,852.00
2023-05-15T10:59:00.691Z,862.00
2023-05-15T11:00:00.794Z,856.00
2023-05-15T11:01:01.243Z,855.00
2023-05-15T11:02:00.737Z,858.00
2023-05-15T11:03:00.932Z,858.00
2023-05-15T11:04:01.299Z,859.00
2023-05-15T11:05:00.866Z,862.00
2023-05-15T11:06:00.854Z,866.00
2023-05-15T11:07:00.880Z,864.00
2023-05-15T11:08:00.912Z,859.00
2023-05-15T11:09:00.952Z,862.00
2023-05-15T11:10:00.982Z,866.00
2023-05-15T11:11:01.025Z,871.00
2023-05-15T11:12:01.725Z,880.00
2023-05-15T11:13:01.078Z,887.00
2023-05-15T11:14:02.153Z,893.00
2023-05-15T11:15:02.092Z,903.00
2023-05-15T11:16:01.123Z,907.00
2023-05-15T11:17:01.232Z,920.00
2023-05-15T11:18:01.174Z,933.00
2023-05-15T11:19:01.175Z,946.00
2023-05-15T11:20:01.156Z,947.00
2023-05-15T11:21:01.724Z,950.00
2023-05-15T11:22:01.183Z,1000.00
2023-05-15T11:23:01.139Z,1119.00
2023-05-15T11:24:01.154Z,1111.00
2023-05-15T11:25:01.601Z,1108.00
2023-05-15T11:26:01.671Z,1123.00
2023-05-15T11:27:01.256Z,1176.00
2023-05-15T11:28:01.309Z,1199.00
2023-05-15T11:29:04.886Z,1214.00
2023-05-15T11:30:01.317Z,1228.00
2023-05-15T11:31:01.354Z,1254.00
2023-05-15T11:32:01.252Z,1289.00
2023-05-15T11:33:01.347Z,1306.00
2023-05-15T11:34:01.810Z,1331.00
2023-05-15T11:35:01.586Z,1352.00
2023-05-15T11:36:01.203Z,1423.00
2023-05-15T11:37:01.192Z,1440.00
2023-05-15T11:38:01.122Z,1459.00
2023-05-15T11:39:02.209Z,1475.00
2023-05-15T11:40:01.091Z,1496.00
2023-05-15T11:41:01.052Z,1520.00
2023-05-15T11:42:01.247Z,1560.00
2023-05-15T11:43:01.011Z,1576.00
2023-05-15T11:44:01.191Z,1594.00
2023-05-15T11:45:00.986Z,1623.00
2023-05-15T11:46:00.966Z,1648.00
2023-05-15T11:47:00.989Z,1680.00
2023-05-15T11:48:01.192Z,1727.00
2023-05-15T11:49:01.168Z,1739.00
2023-05-15T11:50:00.820Z,1748.00
2023-05-15T11:51:00.766Z,1756.00
2023-05-15T11:52:03.960Z,1776.00
2023-05-15T11:53:00.751Z,1814.00
2023-05-15T11:54:06.210Z,1827.00
2023-05-15T11:55:00.681Z,1843.00
2023-05-15T11:56:00.624Z,1860.00
2023-05-15T11:57:00.590Z,1880.00
2023-05-15T11:58:00.576Z,1941.00
2023-05-15T11:59:00.603Z,1955.00
2023-05-15T12:00:00.507Z,1961.00
2023-05-15T12:01:00.484Z,1967.00
2023-05-15T12:02:00.461Z,1987.00
2023-05-15T12:03:00.556Z,2017.00
2023-05-15T12:04:00.998Z,2041.00
2023-05-15T12:05:00.414Z,2053.00
2023-05-15T12:06:00.544Z,2089.00
2023-05-15T12:07:02.789Z,2109.00
2023-05-15T12:08:00.247Z,2128.00
2023-05-15T12:09:00.713Z,2136.00
2023-05-15T12:10:00.249Z,2155.00
2023-05-15T12:11:00.142Z,2170.00
2023-05-15T12:12:00.147Z,2190.00
2023-05-15T12:13:01.063Z,2225.00
2023-05-15T12:14:00.183Z,2229.00
2023-05-15T12:14:59.999Z,2238.00
2023-05-15T12:15:59.992Z,2254.00
2023-05-15T12:16:59.991Z,2276.00
2023-05-15T12:17:59.932Z,2313.00
2023-05-15T12:19:00.217Z,2344.00
2023-05-15T12:20:00.131Z,2358.00
2023-05-15T12:20:59.808Z,2372.00
2023-05-15T12:21:59.759Z,2382.00
2023-05-15T12:22:59.721Z,2393.00
2023-05-15T12:24:07.775Z,2411.00
2023-05-15T12:24:59.705Z,2426.00
2023-05-15T12:26:00.179Z,2441.00
2023-05-15T12:26:59.814Z,2459.00
2023-05-15T12:27:59.538Z,2520.00
2023-05-15T12:28:59.697Z,2533.00